Cape Endless — V7WB3 — position and weather

sailwx.info

Track history (hours):
 
Tides and Currents Weather Stations Pressure Air Temp Water Temp Dewpoint Dewpoint Depression Visibility Wind Speed Wind Dir Waves Ship Positions

Cape Endless

Last reported at 2017-Dec-17 10:43 UTC. Time now 2017-Dec-18 06:52 UTC.
Position N 01°14' E 103°58'.

Length 243 m; draft 4.7 m.

Type: Ship. MMSI: 538006185.

Date/timePositionNaut miles runAvg speedWind from/ knotsBaromVisibWave heightAir tempDewpointWater temp
2017-Dec-17 10:43N 01°14' E 103°58'312.2
2017-Dec-17 10:27N 01°13' E 103°55'713.2
2017-Dec-17 09:57N 01°11' E 103°49'613.6
2017-Dec-17 09:30N 01°07' E 103°44'712.7
2017-Dec-17 08:59N 01°03' E 103°39'611.7
2017-Dec-17 08:30N 01°06' E 103°34'611.7
2017-Dec-17 08:00N 01°09' E 103°28'711.6
2017-Dec-17 07:26N 01°13' E 103°23'611.7
2017-Dec-17 06:57N 01°16' E 103°19'  
Track history (hours):
 
Tides and Currents Weather Stations Pressure Air Temp Water Temp Dewpoint Dewpoint Depression Visibility Wind Speed Wind Dir Waves Ship Positions

Cape Endless

Last reported at 2017-Dec-17 10:43 UTC. Time now 2017-Dec-18 06:52 UTC.
Position N 01°14' E 103°58'.

Length 243 m; draft 4.7 m.

Type: Ship. MMSI: 538006185.

Date/timePositionNaut miles runAvg speedWind from/ knotsBaromVisibWave heightAir tempDewpointWater temp
2017-Dec-17 10:43N 01°14' E 103°58'312.2
2017-Dec-17 10:27N 01°13' E 103°55'713.2
2017-Dec-17 09:57N 01°11' E 103°49'613.6
2017-Dec-17 09:30N 01°07' E 103°44'712.7
2017-Dec-17 08:59N 01°03' E 103°39'611.7
2017-Dec-17 08:30N 01°06' E 103°34'611.7
2017-Dec-17 08:00N 01°09' E 103°28'711.6
2017-Dec-17 07:26N 01°13' E 103°23'611.7
2017-Dec-17 06:57N 01°16' E 103°19'  

Dump ship's entire track history